Terminal Aerodrome Forecast
Issued by NWS Cleveland, OH

Home | Current Version | Previous Version | Text Only | Print | Product List | Glossary On
Versions: 1 2 3 4 5 6 7 8 9 10 11 12 13 14 15 16
000
FTUS41 KCLE 010527
TAFERI
TAF
KERI 010527Z 0106/0206 11009KT P6SM VCSH SCT020 OVC060
      TEMPO 0106/0110 5SM -SHRA BKN020
     FM011000 12009KT 6SM BR VCSH BKN018
     FM011900 10006KT P6SM VCSH BKN035=

USA.gov is the U.S. government's official web portal to all federal, state and local government web resources and services.